Chicopee, Massachusetts
Current Conditions -  °F | °C
As of 6:58 AM on Monday 22 Dec 2014 (Local Time) from KCEF Reporting Station
Overcast Overcast  
Wind Chill: 32°   Ceiling: 1400
Heat Index: 32°   Visibility: 10mi
Dew Point: 30°   Wind: 2mph
Humidity: 93%   Direction: 10°N
Pressure: 30.35"   Gusts: NA
Location:  42.15°N, 72.61°W
Report Text: KCEF 221158Z 01002KT 10SM BKN014 OVC044 00/M01 A3035 RMK AO2A SLP286 60000 T10011011 10000 21004 50004
Loading
Personal Weather Stations






























Interactive Weather Map New forecast layout! Learn more

10-Day Weather Forecast

Advertisements
Track Severe Weather on mobile